sensor_id;sensor_type;location;lat;lon;timestamp;P1;durP1;ratioP1;P2;durP2;ratioP2
41275;SDS011;27010;47.718;12.912;2022-08-25T00:01:25;6.57;;;3.90;;
41275;SDS011;27010;47.718;12.912;2022-08-25T00:04:33;5.73;;;3.70;;
41275;SDS011;27010;47.718;12.912;2022-08-25T00:07:37;3.83;;;3.47;;
41275;SDS011;27010;47.718;12.912;2022-08-25T00:10:39;7.80;;;3.97;;
41275;SDS011;27010;47.718;12.912;2022-08-25T00:14:02;4.63;;;3.70;;
41275;SDS011;27010;47.718;12.912;2022-08-25T00:17:07;5.37;;;4.03;;
41275;SDS011;27010;47.718;12.912;2022-08-25T00:20:09;4.87;;;4.40;;
41275;SDS011;27010;47.718;12.912;2022-08-25T00:23:12;4.67;;;4.27;;
41275;SDS011;27010;47.718;12.912;2022-08-25T00:26:15;6.03;;;3.90;;
41275;SDS011;27010;47.718;12.912;2022-08-25T00:29:17;3.80;;;3.40;;
41275;SDS011;27010;47.718;12.912;2022-08-25T00:32:19;5.03;;;4.13;;
41275;SDS011;27010;47.718;12.912;2022-08-25T00:35:21;4.53;;;3.63;;
41275;SDS011;27010;47.718;12.912;2022-08-25T00:38:26;3.87;;;3.57;;
41275;SDS011;27010;47.718;12.912;2022-08-25T00:41:28;4.43;;;3.70;;
41275;SDS011;27010;47.718;12.912;2022-08-25T00:44:32;4.70;;;3.80;;
41275;SDS011;27010;47.718;12.912;2022-08-25T00:47:35;4.43;;;3.60;;
41275;SDS011;27010;47.718;12.912;2022-08-25T00:50:41;5.27;;;3.93;;
41275;SDS011;27010;47.718;12.912;2022-08-25T00:53:43;5.10;;;4.20;;
41275;SDS011;27010;47.718;12.912;2022-08-25T00:56:46;4.07;;;3.47;;
41275;SDS011;27010;47.718;12.912;2022-08-25T00:59:49;4.43;;;4.03;;
41275;SDS011;27010;47.718;12.912;2022-08-25T01:02:52;3.67;;;3.37;;
41275;SDS011;27010;47.718;12.912;2022-08-25T01:05:57;4.27;;;3.83;;
41275;SDS011;27010;47.718;12.912;2022-08-25T01:09:00;4.83;;;3.83;;
41275;SDS011;27010;47.718;12.912;2022-08-25T01:12:02;4.23;;;3.80;;
41275;SDS011;27010;47.718;12.912;2022-08-25T01:15:05;4.50;;;4.10;;
41275;SDS011;27010;47.718;12.912;2022-08-25T01:18:09;4.50;;;3.50;;
41275;SDS011;27010;47.718;12.912;2022-08-25T01:21:12;3.93;;;3.50;;
41275;SDS011;27010;47.718;12.912;2022-08-25T01:24:17;4.37;;;3.90;;
41275;SDS011;27010;47.718;12.912;2022-08-25T01:27:56;4.10;;;3.70;;
41275;SDS011;27010;47.718;12.912;2022-08-25T01:30:58;3.47;;;3.17;;
41275;SDS011;27010;47.718;12.912;2022-08-25T01:34:01;4.07;;;3.70;;
41275;SDS011;27010;47.718;12.912;2022-08-25T01:37:04;5.17;;;3.93;;
41275;SDS011;27010;47.718;12.912;2022-08-25T01:40:12;4.27;;;3.47;;
41275;SDS011;27010;47.718;12.912;2022-08-25T01:46:18;3.77;;;3.47;;
41275;SDS011;27010;47.718;12.912;2022-08-25T01:49:20;6.03;;;3.80;;
41275;SDS011;27010;47.718;12.912;2022-08-25T01:52:24;5.30;;;3.63;;
41275;SDS011;27010;47.718;12.912;2022-08-25T01:55:30;9.07;;;4.30;;
41275;SDS011;27010;47.718;12.912;2022-08-25T01:58:52;3.70;;;3.40;;
41275;SDS011;27010;47.718;12.912;2022-08-25T02:01:54;3.93;;;3.57;;
41275;SDS011;27010;47.718;12.912;2022-08-25T02:05:00;4.00;;;3.60;;
41275;SDS011;27010;47.718;12.912;2022-08-25T02:08:03;4.50;;;4.10;;
41275;SDS011;27010;47.718;12.912;2022-08-25T02:11:05;4.17;;;3.77;;
41275;SDS011;27010;47.718;12.912;2022-08-25T02:14:13;4.40;;;4.00;;
41275;SDS011;27010;47.718;12.912;2022-08-25T02:17:15;4.40;;;4.10;;
41275;SDS011;27010;47.718;12.912;2022-08-25T02:20:17;4.90;;;4.17;;
41275;SDS011;27010;47.718;12.912;2022-08-25T02:23:19;4.30;;;3.90;;
41275;SDS011;27010;47.718;12.912;2022-08-25T02:26:21;4.30;;;3.90;;
41275;SDS011;27010;47.718;12.912;2022-08-25T02:29:23;4.47;;;3.97;;
41275;SDS011;27010;47.718;12.912;2022-08-25T02:32:26;7.00;;;4.00;;
41275;SDS011;27010;47.718;12.912;2022-08-25T02:35:28;5.70;;;3.93;;
41275;SDS011;27010;47.718;12.912;2022-08-25T02:38:30;6.43;;;4.70;;
41275;SDS011;27010;47.718;12.912;2022-08-25T02:41:32;5.50;;;4.37;;
41275;SDS011;27010;47.718;12.912;2022-08-25T02:44:35;4.63;;;3.70;;
41275;SDS011;27010;47.718;12.912;2022-08-25T02:47:37;4.30;;;3.90;;
41275;SDS011;27010;47.718;12.912;2022-08-25T02:50:39;6.13;;;3.93;;
41275;SDS011;27010;47.718;12.912;2022-08-25T02:53:41;4.63;;;3.70;;
41275;SDS011;27010;47.718;12.912;2022-08-25T02:56:46;5.33;;;3.77;;
41275;SDS011;27010;47.718;12.912;2022-08-25T02:59:49;4.37;;;3.97;;
41275;SDS011;27010;47.718;12.912;2022-08-25T03:02:52;4.40;;;4.00;;
41275;SDS011;27010;47.718;12.912;2022-08-25T03:05:54;4.23;;;3.90;;
41275;SDS011;27010;47.718;12.912;2022-08-25T03:08:58;4.47;;;4.07;;
41275;SDS011;27010;47.718;12.912;2022-08-25T03:12:00;4.13;;;3.73;;
41275;SDS011;27010;47.718;12.912;2022-08-25T03:15:03;3.87;;;3.57;;
41275;SDS011;27010;47.718;12.912;2022-08-25T03:18:13;3.87;;;3.57;;
41275;SDS011;27010;47.718;12.912;2022-08-25T03:21:17;4.00;;;3.70;;
41275;SDS011;27010;47.718;12.912;2022-08-25T03:24:19;5.93;;;4.37;;
41275;SDS011;27010;47.718;12.912;2022-08-25T03:27:22;4.60;;;3.80;;
41275;SDS011;27010;47.718;12.912;2022-08-25T03:30:25;4.63;;;4.20;;
41275;SDS011;27010;47.718;12.912;2022-08-25T03:33:28;4.87;;;4.47;;
41275;SDS011;27010;47.718;12.912;2022-08-25T03:36:31;4.13;;;3.73;;
41275;SDS011;27010;47.718;12.912;2022-08-25T03:39:33;3.73;;;3.43;;
41275;SDS011;27010;47.718;12.912;2022-08-25T03:42:39;4.27;;;3.87;;
41275;SDS011;27010;47.718;12.912;2022-08-25T03:45:46;4.57;;;4.17;;
41275;SDS011;27010;47.718;12.912;2022-08-25T03:48:49;4.00;;;3.60;;
41275;SDS011;27010;47.718;12.912;2022-08-25T03:51:52;5.60;;;4.73;;
41275;SDS011;27010;47.718;12.912;2022-08-25T03:54:55;5.20;;;4.70;;
41275;SDS011;27010;47.718;12.912;2022-08-25T03:57:58;10.70;;;4.20;;
41275;SDS011;27010;47.718;12.912;2022-08-25T04:01:00;4.60;;;4.20;;
41275;SDS011;27010;47.718;12.912;2022-08-25T04:04:02;4.27;;;3.87;;
41275;SDS011;27010;47.718;12.912;2022-08-25T04:07:05;4.60;;;4.20;;
41275;SDS011;27010;47.718;12.912;2022-08-25T04:10:08;4.77;;;4.37;;
41275;SDS011;27010;47.718;12.912;2022-08-25T04:13:11;5.27;;;4.57;;
41275;SDS011;27010;47.718;12.912;2022-08-25T04:16:18;4.90;;;4.50;;
41275;SDS011;27010;47.718;12.912;2022-08-25T04:19:26;6.73;;;4.80;;
41275;SDS011;27010;47.718;12.912;2022-08-25T04:22:29;5.27;;;4.77;;
41275;SDS011;27010;47.718;12.912;2022-08-25T04:25:38;4.67;;;4.17;;
41275;SDS011;27010;47.718;12.912;2022-08-25T04:28:46;5.80;;;3.97;;
41275;SDS011;27010;47.718;12.912;2022-08-25T04:31:49;4.87;;;4.47;;
41275;SDS011;27010;47.718;12.912;2022-08-25T04:34:51;4.83;;;4.33;;
41275;SDS011;27010;47.718;12.912;2022-08-25T04:37:53;4.53;;;4.00;;
41275;SDS011;27010;47.718;12.912;2022-08-25T04:40:56;5.00;;;4.50;;
41275;SDS011;27010;47.718;12.912;2022-08-25T04:44:03;6.97;;;4.37;;
41275;SDS011;27010;47.718;12.912;2022-08-25T04:47:05;5.03;;;4.20;;
41275;SDS011;27010;47.718;12.912;2022-08-25T04:50:08;5.17;;;4.30;;
41275;SDS011;27010;47.718;12.912;2022-08-25T04:53:11;4.47;;;4.07;;
41275;SDS011;27010;47.718;12.912;2022-08-25T04:56:15;8.47;;;4.80;;
41275;SDS011;27010;47.718;12.912;2022-08-25T04:59:21;5.67;;;4.50;;
41275;SDS011;27010;47.718;12.912;2022-08-25T05:02:31;4.67;;;4.27;;
41275;SDS011;27010;47.718;12.912;2022-08-25T05:05:34;6.40;;;4.30;;
41275;SDS011;27010;47.718;12.912;2022-08-25T05:08:37;5.63;;;5.00;;
41275;SDS011;27010;47.718;12.912;2022-08-25T05:11:40;4.30;;;3.70;;
41275;SDS011;27010;47.718;12.912;2022-08-25T05:14:42;4.93;;;4.53;;
41275;SDS011;27010;47.718;12.912;2022-08-25T05:17:44;4.80;;;4.40;;
41275;SDS011;27010;47.718;12.912;2022-08-25T05:20:46;6.90;;;4.73;;
41275;SDS011;27010;47.718;12.912;2022-08-25T05:23:48;4.47;;;4.07;;
41275;SDS011;27010;47.718;12.912;2022-08-25T05:26:52;6.33;;;4.17;;
41275;SDS011;27010;47.718;12.912;2022-08-25T05:29:55;4.67;;;4.27;;
41275;SDS011;27010;47.718;12.912;2022-08-25T05:32:57;5.00;;;4.60;;
41275;SDS011;27010;47.718;12.912;2022-08-25T05:35:59;4.37;;;4.00;;
41275;SDS011;27010;47.718;12.912;2022-08-25T05:39:01;5.83;;;4.30;;
41275;SDS011;27010;47.718;12.912;2022-08-25T05:42:06;4.70;;;4.20;;
41275;SDS011;27010;47.718;12.912;2022-08-25T05:45:08;4.43;;;4.03;;
41275;SDS011;27010;47.718;12.912;2022-08-25T05:48:21;5.60;;;4.20;;
41275;SDS011;27010;47.718;12.912;2022-08-25T05:51:25;6.20;;;4.10;;
41275;SDS011;27010;47.718;12.912;2022-08-25T05:54:28;4.43;;;4.03;;
41275;SDS011;27010;47.718;12.912;2022-08-25T05:57:30;4.17;;;3.77;;
41275;SDS011;27010;47.718;12.912;2022-08-25T06:00:33;4.00;;;3.63;;
41275;SDS011;27010;47.718;12.912;2022-08-25T06:03:36;7.60;;;4.30;;
41275;SDS011;27010;47.718;12.912;2022-08-25T06:06:40;4.13;;;3.73;;
41275;SDS011;27010;47.718;12.912;2022-08-25T06:09:43;4.90;;;3.87;;
41275;SDS011;27010;47.718;12.912;2022-08-25T06:12:47;4.23;;;3.53;;
41275;SDS011;27010;47.718;12.912;2022-08-25T06:15:55;4.33;;;3.93;;
41275;SDS011;27010;47.718;12.912;2022-08-25T06:18:58;4.23;;;3.83;;
41275;SDS011;27010;47.718;12.912;2022-08-25T06:22:03;4.37;;;3.97;;
41275;SDS011;27010;47.718;12.912;2022-08-25T06:25:06;4.50;;;4.10;;
41275;SDS011;27010;47.718;12.912;2022-08-25T06:28:11;4.27;;;3.53;;
41275;SDS011;27010;47.718;12.912;2022-08-25T06:31:15;4.00;;;3.60;;
41275;SDS011;27010;47.718;12.912;2022-08-25T06:34:18;4.43;;;3.70;;
41275;SDS011;27010;47.718;12.912;2022-08-25T06:37:24;3.83;;;3.53;;
41275;SDS011;27010;47.718;12.912;2022-08-25T06:40:27;3.80;;;3.50;;
41275;SDS011;27010;47.718;12.912;2022-08-25T06:43:29;4.80;;;4.00;;
41275;SDS011;27010;47.718;12.912;2022-08-25T06:46:33;5.07;;;3.70;;
41275;SDS011;27010;47.718;12.912;2022-08-25T06:49:37;3.57;;;3.27;;
41275;SDS011;27010;47.718;12.912;2022-08-25T06:52:42;6.50;;;3.60;;
41275;SDS011;27010;47.718;12.912;2022-08-25T06:55:54;3.80;;;3.10;;
41275;SDS011;27010;47.718;12.912;2022-08-25T06:58:57;3.23;;;3.00;;
41275;SDS011;27010;47.718;12.912;2022-08-25T07:02:03;6.60;;;3.63;;
41275;SDS011;27010;47.718;12.912;2022-08-25T07:05:09;3.10;;;2.87;;
41275;SDS011;27010;47.718;12.912;2022-08-25T07:08:27;4.93;;;3.40;;
41275;SDS011;27010;47.718;12.912;2022-08-25T07:11:29;3.70;;;3.40;;
41275;SDS011;27010;47.718;12.912;2022-08-25T07:14:36;3.00;;;2.70;;
41275;SDS011;27010;47.718;12.912;2022-08-25T07:17:38;3.65;;;3.30;;
41275;SDS011;27010;47.718;12.912;2022-08-25T07:20:44;3.60;;;3.30;;
41275;SDS011;27010;47.718;12.912;2022-08-25T07:23:46;3.60;;;3.28;;
41275;SDS011;27010;47.718;12.912;2022-08-25T07:26:49;3.83;;;3.13;;
41275;SDS011;27010;47.718;12.912;2022-08-25T07:29:55;3.58;;;3.28;;
41275;SDS011;27010;47.718;12.912;2022-08-25T07:32:59;3.05;;;2.80;;
41275;SDS011;27010;47.718;12.912;2022-08-25T07:36:07;3.70;;;3.33;;
41275;SDS011;27010;47.718;12.912;2022-08-25T07:39:10;5.00;;;3.08;;
41275;SDS011;27010;47.718;12.912;2022-08-25T07:42:13;3.40;;;3.10;;
41275;SDS011;27010;47.718;12.912;2022-08-25T07:45:19;3.25;;;2.92;;
41275;SDS011;27010;47.718;12.912;2022-08-25T07:48:22;3.70;;;3.38;;
41275;SDS011;27010;47.718;12.912;2022-08-25T07:51:24;3.58;;;3.28;;
41275;SDS011;27010;47.718;12.912;2022-08-25T07:54:27;3.55;;;3.20;;
41275;SDS011;27010;47.718;12.912;2022-08-25T07:57:35;3.67;;;3.03;;
41275;SDS011;27010;47.718;12.912;2022-08-25T08:00:41;3.92;;;3.20;;
41275;SDS011;27010;47.718;12.912;2022-08-25T08:03:44;3.67;;;3.30;;
41275;SDS011;27010;47.718;12.912;2022-08-25T08:06:51;4.68;;;2.63;;
41275;SDS011;27010;47.718;12.912;2022-08-25T08:09:57;4.65;;;2.83;;
41275;SDS011;27010;47.718;12.912;2022-08-25T08:13:21;4.38;;;3.35;;
41275;SDS011;27010;47.718;12.912;2022-08-25T08:16:27;3.30;;;2.85;;
41275;SDS011;27010;47.718;12.912;2022-08-25T08:19:30;3.97;;;2.80;;
41275;SDS011;27010;47.718;12.912;2022-08-25T08:22:35;6.18;;;3.05;;
41275;SDS011;27010;47.718;12.912;2022-08-25T08:25:42;3.40;;;3.10;;
41275;SDS011;27010;47.718;12.912;2022-08-25T08:28:46;4.90;;;3.47;;
41275;SDS011;27010;47.718;12.912;2022-08-25T08:31:52;3.30;;;3.00;;
41275;SDS011;27010;47.718;12.912;2022-08-25T08:34:54;3.70;;;3.20;;
41275;SDS011;27010;47.718;12.912;2022-08-25T08:37:56;4.55;;;3.50;;
41275;SDS011;27010;47.718;12.912;2022-08-25T08:41:07;4.90;;;3.00;;
41275;SDS011;27010;47.718;12.912;2022-08-25T08:51:47;3.30;;;3.00;;
41275;SDS011;27010;47.718;12.912;2022-08-25T08:54:56;4.40;;;3.20;;
41275;SDS011;27010;47.718;12.912;2022-08-25T08:58:12;3.72;;;3.30;;
41275;SDS011;27010;47.718;12.912;2022-08-25T09:01:30;3.97;;;2.85;;
41275;SDS011;27010;47.718;12.912;2022-08-25T09:04:46;2.90;;;2.65;;
41275;SDS011;27010;47.718;12.912;2022-08-25T09:07:58;2.83;;;2.63;;
41275;SDS011;27010;47.718;12.912;2022-08-25T09:19:00;3.28;;;2.97;;
41275;SDS011;27010;47.718;12.912;2022-08-25T09:22:37;3.15;;;2.92;;
41275;SDS011;27010;47.718;12.912;2022-08-25T09:29:23;3.83;;;3.00;;
41275;SDS011;27010;47.718;12.912;2022-08-25T09:32:33;4.88;;;3.05;;
41275;SDS011;27010;47.718;12.912;2022-08-25T09:35:40;5.43;;;2.78;;
41275;SDS011;27010;47.718;12.912;2022-08-25T09:38:44;3.33;;;3.00;;
41275;SDS011;27010;47.718;12.912;2022-08-25T09:41:57;3.80;;;3.10;;
41275;SDS011;27010;47.718;12.912;2022-08-25T09:45:00;4.63;;;2.92;;
41275;SDS011;27010;47.718;12.912;2022-08-25T09:48:08;3.13;;;2.88;;
41275;SDS011;27010;47.718;12.912;2022-08-25T09:51:27;2.45;;;2.25;;
41275;SDS011;27010;47.718;12.912;2022-08-25T09:54:43;4.07;;;2.45;;
41275;SDS011;27010;47.718;12.912;2022-08-25T09:57:52;2.80;;;2.60;;
41275;SDS011;27010;47.718;12.912;2022-08-25T10:01:17;4.22;;;2.63;;
41275;SDS011;27010;47.718;12.912;2022-08-25T10:04:26;2.95;;;2.75;;
41275;SDS011;27010;47.718;12.912;2022-08-25T10:07:38;4.15;;;2.75;;
41275;SDS011;27010;47.718;12.912;2022-08-25T10:10:58;3.35;;;3.05;;
41275;SDS011;27010;47.718;12.912;2022-08-25T10:17:31;4.57;;;3.30;;
41275;SDS011;27010;47.718;12.912;2022-08-25T10:20:36;3.50;;;2.75;;
41275;SDS011;27010;47.718;12.912;2022-08-25T10:23:48;5.03;;;3.13;;
41275;SDS011;27010;47.718;12.912;2022-08-25T10:27:01;6.13;;;3.42;;
41275;SDS011;27010;47.718;12.912;2022-08-25T10:33:20;5.78;;;3.22;;
41275;SDS011;27010;47.718;12.912;2022-08-25T10:36:46;5.82;;;3.80;;
41275;SDS011;27010;47.718;12.912;2022-08-25T10:43:57;5.00;;;3.58;;
41275;SDS011;27010;47.718;12.912;2022-08-25T10:50:47;4.30;;;3.92;;
41275;SDS011;27010;47.718;12.912;2022-08-25T10:57:22;5.07;;;3.97;;
41275;SDS011;27010;47.718;12.912;2022-08-25T11:00:41;4.95;;;3.45;;
41275;SDS011;27010;47.718;12.912;2022-08-25T11:03:54;5.07;;;3.67;;
41275;SDS011;27010;47.718;12.912;2022-08-25T11:14:15;5.88;;;4.22;;
41275;SDS011;27010;47.718;12.912;2022-08-25T11:17:24;5.03;;;4.45;;
41275;SDS011;27010;47.718;12.912;2022-08-25T11:20:58;5.20;;;4.07;;
41275;SDS011;27010;47.718;12.912;2022-08-25T11:31:01;5.30;;;4.50;;
41275;SDS011;27010;47.718;12.912;2022-08-25T11:34:07;5.47;;;4.50;;
41275;SDS011;27010;47.718;12.912;2022-08-25T11:37:13;5.38;;;4.88;;
41275;SDS011;27010;47.718;12.912;2022-08-25T11:47:32;7.93;;;5.20;;
41275;SDS011;27010;47.718;12.912;2022-08-25T11:54:15;7.40;;;5.30;;
41275;SDS011;27010;47.718;12.912;2022-08-25T11:57:38;9.05;;;5.93;;
41275;SDS011;27010;47.718;12.912;2022-08-25T12:00:42;7.65;;;6.15;;
41275;SDS011;27010;47.718;12.912;2022-08-25T12:03:45;8.90;;;5.45;;
41275;SDS011;27010;47.718;12.912;2022-08-25T12:10:21;7.82;;;5.60;;
41275;SDS011;27010;47.718;12.912;2022-08-25T12:19:57;6.15;;;5.55;;
41275;SDS011;27010;47.718;12.912;2022-08-25T12:23:01;7.05;;;5.03;;
41275;SDS011;27010;47.718;12.912;2022-08-25T12:26:29;8.27;;;5.50;;
41275;SDS011;27010;47.718;12.912;2022-08-25T12:36:27;10.30;;;5.70;;
41275;SDS011;27010;47.718;12.912;2022-08-25T12:39:34;10.45;;;6.40;;
41275;SDS011;27010;47.718;12.912;2022-08-25T12:42:40;10.68;;;6.45;;
41275;SDS011;27010;47.718;12.912;2022-08-25T12:45:47;11.55;;;6.68;;
41275;SDS011;27010;47.718;12.912;2022-08-25T12:48:55;9.52;;;6.32;;
41275;SDS011;27010;47.718;12.912;2022-08-25T12:52:25;8.25;;;6.15;;
41275;SDS011;27010;47.718;12.912;2022-08-25T12:55:28;12.07;;;5.80;;
41275;SDS011;27010;47.718;12.912;2022-08-25T12:58:35;11.27;;;6.75;;
41275;SDS011;27010;47.718;12.912;2022-08-25T13:02:21;10.70;;;5.75;;
41275;SDS011;27010;47.718;12.912;2022-08-25T13:12:12;11.25;;;6.30;;
41275;SDS011;27010;47.718;12.912;2022-08-25T13:15:25;8.73;;;6.03;;
41275;SDS011;27010;47.718;12.912;2022-08-25T13:18:53;7.72;;;5.80;;
41275;SDS011;27010;47.718;12.912;2022-08-25T13:22:11;11.07;;;6.13;;
41275;SDS011;27010;47.718;12.912;2022-08-25T13:25:28;10.10;;;6.20;;
41275;SDS011;27010;47.718;12.912;2022-08-25T13:28:35;13.20;;;6.18;;
41275;SDS011;27010;47.718;12.912;2022-08-25T13:35:11;11.75;;;5.65;;
41275;SDS011;27010;47.718;12.912;2022-08-25T13:38:19;12.85;;;6.25;;
41275;SDS011;27010;47.718;12.912;2022-08-25T13:41:25;11.70;;;6.35;;
41275;SDS011;27010;47.718;12.912;2022-08-25T13:44:36;8.93;;;6.25;;
41275;SDS011;27010;47.718;12.912;2022-08-25T13:47:41;8.07;;;6.10;;
41275;SDS011;27010;47.718;12.912;2022-08-25T13:50:46;13.10;;;6.57;;
41275;SDS011;27010;47.718;12.912;2022-08-25T13:53:57;9.20;;;5.93;;
41275;SDS011;27010;47.718;12.912;2022-08-25T13:57:28;11.65;;;6.20;;
41275;SDS011;27010;47.718;12.912;2022-08-25T14:00:40;9.80;;;6.20;;
41275;SDS011;27010;47.718;12.912;2022-08-25T14:03:56;12.98;;;5.82;;
41275;SDS011;27010;47.718;12.912;2022-08-25T14:10:41;11.82;;;6.30;;
41275;SDS011;27010;47.718;12.912;2022-08-25T14:13:45;10.02;;;6.28;;
41275;SDS011;27010;47.718;12.912;2022-08-25T14:19:57;10.55;;;5.97;;
41275;SDS011;27010;47.718;12.912;2022-08-25T14:23:07;16.08;;;6.88;;
41275;SDS011;27010;47.718;12.912;2022-08-25T14:26:19;13.30;;;7.05;;
41275;SDS011;27010;47.718;12.912;2022-08-25T14:29:22;10.68;;;7.22;;
41275;SDS011;27010;47.718;12.912;2022-08-25T14:32:30;13.52;;;7.85;;
41275;SDS011;27010;47.718;12.912;2022-08-25T14:35:34;15.98;;;7.53;;
41275;SDS011;27010;47.718;12.912;2022-08-25T14:38:40;17.00;;;7.72;;
41275;SDS011;27010;47.718;12.912;2022-08-25T14:41:44;17.83;;;7.85;;
41275;SDS011;27010;47.718;12.912;2022-08-25T14:44:53;7.95;;;6.85;;
41275;SDS011;27010;47.718;12.912;2022-08-25T14:48:00;11.63;;;6.65;;
41275;SDS011;27010;47.718;12.912;2022-08-25T14:51:11;19.02;;;7.82;;
41275;SDS011;27010;47.718;12.912;2022-08-25T14:54:14;11.45;;;7.07;;
41275;SDS011;27010;47.718;12.912;2022-08-25T14:57:23;17.70;;;7.10;;
41275;SDS011;27010;47.718;12.912;2022-08-25T15:00:26;11.43;;;7.20;;
41275;SDS011;27010;47.718;12.912;2022-08-25T15:03:33;13.45;;;6.43;;
41275;SDS011;27010;47.718;12.912;2022-08-25T15:06:40;15.70;;;7.07;;
41275;SDS011;27010;47.718;12.912;2022-08-25T15:09:45;15.27;;;7.72;;
41275;SDS011;27010;47.718;12.912;2022-08-25T15:12:48;16.33;;;7.78;;
41275;SDS011;27010;47.718;12.912;2022-08-25T15:15:55;10.82;;;7.57;;
41275;SDS011;27010;47.718;12.912;2022-08-25T15:19:00;17.42;;;7.80;;
41275;SDS011;27010;47.718;12.912;2022-08-25T15:22:07;16.00;;;8.32;;
41275;SDS011;27010;47.718;12.912;2022-08-25T15:25:11;12.15;;;7.68;;
41275;SDS011;27010;47.718;12.912;2022-08-25T15:28:15;18.10;;;7.68;;
41275;SDS011;27010;47.718;12.912;2022-08-25T15:31:22;14.30;;;6.82;;
41275;SDS011;27010;47.718;12.912;2022-08-25T15:34:27;17.40;;;8.10;;
41275;SDS011;27010;47.718;12.912;2022-08-25T15:37:32;12.07;;;6.70;;
41275;SDS011;27010;47.718;12.912;2022-08-25T15:40:42;15.63;;;7.10;;
41275;SDS011;27010;47.718;12.912;2022-08-25T15:43:46;10.23;;;6.25;;
41275;SDS011;27010;47.718;12.912;2022-08-25T15:46:56;17.52;;;7.03;;
41275;SDS011;27010;47.718;12.912;2022-08-25T15:50:03;8.85;;;6.75;;
41275;SDS011;27010;47.718;12.912;2022-08-25T15:53:08;14.10;;;6.78;;
41275;SDS011;27010;47.718;12.912;2022-08-25T15:56:11;12.77;;;6.85;;
41275;SDS011;27010;47.718;12.912;2022-08-25T15:59:27;11.68;;;6.65;;
41275;SDS011;27010;47.718;12.912;2022-08-25T16:02:42;14.38;;;7.28;;
41275;SDS011;27010;47.718;12.912;2022-08-25T16:05:46;17.33;;;8.02;;
41275;SDS011;27010;47.718;12.912;2022-08-25T16:08:50;16.85;;;8.30;;
41275;SDS011;27010;47.718;12.912;2022-08-25T16:11:53;15.65;;;7.43;;
41275;SDS011;27010;47.718;12.912;2022-08-25T16:15:04;11.95;;;7.57;;
41275;SDS011;27010;47.718;12.912;2022-08-25T16:18:08;14.20;;;7.80;;
41275;SDS011;27010;47.718;12.912;2022-08-25T16:21:12;18.45;;;8.27;;
41275;SDS011;27010;47.718;12.912;2022-08-25T16:24:21;15.18;;;8.25;;
41275;SDS011;27010;47.718;12.912;2022-08-25T16:27:27;16.33;;;8.40;;
41275;SDS011;27010;47.718;12.912;2022-08-25T16:30:39;13.93;;;8.02;;
41275;SDS011;27010;47.718;12.912;2022-08-25T16:33:53;15.60;;;7.97;;
41275;SDS011;27010;47.718;12.912;2022-08-25T16:37:00;16.83;;;8.18;;
41275;SDS011;27010;47.718;12.912;2022-08-25T16:40:07;17.13;;;7.43;;
41275;SDS011;27010;47.718;12.912;2022-08-25T16:43:15;17.40;;;8.48;;
41275;SDS011;27010;47.718;12.912;2022-08-25T16:46:25;18.13;;;8.30;;
41275;SDS011;27010;47.718;12.912;2022-08-25T16:49:33;16.95;;;8.10;;
41275;SDS011;27010;47.718;12.912;2022-08-25T16:52:41;15.35;;;7.60;;
41275;SDS011;27010;47.718;12.912;2022-08-25T16:56:09;13.65;;;8.27;;
41275;SDS011;27010;47.718;12.912;2022-08-25T16:59:12;16.13;;;8.60;;
41275;SDS011;27010;47.718;12.912;2022-08-25T17:02:15;15.18;;;8.45;;
41275;SDS011;27010;47.718;12.912;2022-08-25T17:05:26;13.27;;;7.43;;
41275;SDS011;27010;47.718;12.912;2022-08-25T17:08:33;18.70;;;8.50;;
41275;SDS011;27010;47.718;12.912;2022-08-25T17:11:40;13.52;;;7.45;;
41275;SDS011;27010;47.718;12.912;2022-08-25T17:14:47;13.73;;;8.13;;
41275;SDS011;27010;47.718;12.912;2022-08-25T17:17:52;15.88;;;8.02;;
41275;SDS011;27010;47.718;12.912;2022-08-25T17:20:59;10.93;;;8.85;;
41275;SDS011;27010;47.718;12.912;2022-08-25T17:24:04;16.50;;;8.48;;
41275;SDS011;27010;47.718;12.912;2022-08-25T17:27:06;19.92;;;8.82;;
41275;SDS011;27010;47.718;12.912;2022-08-25T17:30:12;14.57;;;8.63;;
41275;SDS011;27010;47.718;12.912;2022-08-25T17:33:17;17.13;;;9.15;;
41275;SDS011;27010;47.718;12.912;2022-08-25T17:36:26;15.55;;;8.68;;
41275;SDS011;27010;47.718;12.912;2022-08-25T17:39:29;14.23;;;8.38;;
41275;SDS011;27010;47.718;12.912;2022-08-25T17:42:36;12.05;;;7.82;;
41275;SDS011;27010;47.718;12.912;2022-08-25T17:45:48;14.60;;;8.70;;
41275;SDS011;27010;47.718;12.912;2022-08-25T17:48:50;10.18;;;8.23;;
41275;SDS011;27010;47.718;12.912;2022-08-25T17:51:52;14.32;;;8.25;;
41275;SDS011;27010;47.718;12.912;2022-08-25T17:54:55;13.00;;;8.43;;
41275;SDS011;27010;47.718;12.912;2022-08-25T17:57:59;16.70;;;8.95;;
41275;SDS011;27010;47.718;12.912;2022-08-25T18:01:19;16.85;;;8.77;;
41275;SDS011;27010;47.718;12.912;2022-08-25T18:04:27;24.17;;;10.52;;
41275;SDS011;27010;47.718;12.912;2022-08-25T18:07:30;17.10;;;9.23;;
41275;SDS011;27010;47.718;12.912;2022-08-25T18:10:37;16.58;;;8.98;;
41275;SDS011;27010;47.718;12.912;2022-08-25T18:13:41;12.85;;;8.80;;
41275;SDS011;27010;47.718;12.912;2022-08-25T18:16:44;14.68;;;8.73;;
41275;SDS011;27010;47.718;12.912;2022-08-25T18:19:53;16.77;;;8.63;;
41275;SDS011;27010;47.718;12.912;2022-08-25T18:23:02;18.77;;;9.88;;
41275;SDS011;27010;47.718;12.912;2022-08-25T18:26:11;20.65;;;9.60;;
41275;SDS011;27010;47.718;12.912;2022-08-25T18:29:15;15.23;;;8.90;;
41275;SDS011;27010;47.718;12.912;2022-08-25T18:32:17;13.48;;;8.90;;
41275;SDS011;27010;47.718;12.912;2022-08-25T18:35:20;21.60;;;10.02;;
41275;SDS011;27010;47.718;12.912;2022-08-25T18:38:26;17.38;;;9.50;;
41275;SDS011;27010;47.718;12.912;2022-08-25T18:41:58;16.83;;;9.15;;
41275;SDS011;27010;47.718;12.912;2022-08-25T18:45:03;17.83;;;9.63;;
41275;SDS011;27010;47.718;12.912;2022-08-25T18:48:15;15.02;;;9.48;;
41275;SDS011;27010;47.718;12.912;2022-08-25T18:51:28;16.92;;;9.75;;
41275;SDS011;27010;47.718;12.912;2022-08-25T18:54:33;14.32;;;9.30;;
41275;SDS011;27010;47.718;12.912;2022-08-25T18:57:37;16.10;;;9.98;;
41275;SDS011;27010;47.718;12.912;2022-08-25T19:00:47;18.95;;;9.82;;
41275;SDS011;27010;47.718;12.912;2022-08-25T19:03:51;13.50;;;9.73;;
41275;SDS011;27010;47.718;12.912;2022-08-25T19:06:55;14.40;;;9.82;;
41275;SDS011;27010;47.718;12.912;2022-08-25T19:09:58;15.80;;;9.68;;
41275;SDS011;27010;47.718;12.912;2022-08-25T19:13:04;20.45;;;9.90;;
41275;SDS011;27010;47.718;12.912;2022-08-25T19:16:11;11.52;;;9.70;;
41275;SDS011;27010;47.718;12.912;2022-08-25T19:19:21;14.80;;;9.70;;
41275;SDS011;27010;47.718;12.912;2022-08-25T19:22:25;14.85;;;9.70;;
41275;SDS011;27010;47.718;12.912;2022-08-25T19:25:42;13.27;;;9.38;;
41275;SDS011;27010;47.718;12.912;2022-08-25T19:28:47;16.33;;;9.77;;
41275;SDS011;27010;47.718;12.912;2022-08-25T19:31:50;15.45;;;9.48;;
41275;SDS011;27010;47.718;12.912;2022-08-25T19:35:01;14.65;;;9.18;;
41275;SDS011;27010;47.718;12.912;2022-08-25T19:38:12;14.95;;;9.63;;
41275;SDS011;27010;47.718;12.912;2022-08-25T19:41:34;14.30;;;9.32;;
41275;SDS011;27010;47.718;12.912;2022-08-25T19:44:38;14.75;;;9.75;;
41275;SDS011;27010;47.718;12.912;2022-08-25T19:47:45;18.92;;;9.90;;
41275;SDS011;27010;47.718;12.912;2022-08-25T19:50:48;16.88;;;9.40;;
41275;SDS011;27010;47.718;12.912;2022-08-25T19:53:56;14.75;;;9.95;;
41275;SDS011;27010;47.718;12.912;2022-08-25T19:57:03;13.82;;;9.40;;
41275;SDS011;27010;47.718;12.912;2022-08-25T20:00:33;19.13;;;9.95;;
41275;SDS011;27010;47.718;12.912;2022-08-25T20:03:38;14.63;;;10.10;;